createdAt,value
2023-05-14T00:01:24.045Z,5.18
2023-05-14T00:06:25.719Z,5.70
2023-05-14T00:11:27.231Z,5.10
2023-05-14T00:16:29.070Z,4.85
2023-05-14T00:21:31.772Z,5.18
2023-05-14T00:26:33.385Z,5.28
2023-05-14T00:31:35.227Z,4.90
2023-05-14T00:36:37.894Z,5.80
2023-05-14T00:41:39.581Z,5.20
2023-05-14T00:46:41.387Z,4.65
2023-05-14T00:51:46.719Z,5.35
2023-05-14T00:56:48.687Z,5.85
2023-05-14T01:01:51.068Z,5.38
2023-05-14T01:07:39.110Z,4.82
2023-05-14T01:13:02.859Z,5.50
2023-05-14T01:18:09.625Z,5.90
2023-05-14T01:23:12.120Z,6.23
2023-05-14T01:28:26.950Z,6.43
2023-05-14T01:33:29.734Z,6.10
2023-05-14T01:38:34.022Z,5.68
2023-05-14T01:43:37.618Z,5.85
2023-05-14T01:48:41.407Z,5.28
2023-05-14T01:53:43.351Z,5.38
2023-05-14T01:58:44.900Z,6.15
2023-05-14T02:03:46.478Z,5.28
2023-05-14T02:08:47.986Z,4.78
2023-05-14T02:13:49.624Z,5.53
2023-05-14T02:18:51.292Z,5.47
2023-05-14T02:23:52.898Z,5.50
2023-05-14T02:28:54.453Z,5.55
2023-05-14T02:33:55.953Z,6.07
2023-05-14T02:38:59.818Z,6.10
2023-05-14T02:44:01.403Z,5.50
2023-05-14T02:49:03.224Z,5.13
2023-05-14T02:54:04.951Z,5.47
2023-05-14T02:59:06.506Z,6.20
2023-05-14T03:04:08.672Z,6.28
2023-05-14T03:09:10.332Z,6.45
2023-05-14T03:14:11.895Z,6.47
2023-05-14T03:19:13.574Z,6.40
2023-05-14T03:24:15.391Z,7.43
2023-05-14T03:29:19.065Z,6.47
2023-05-14T03:34:20.678Z,6.65
2023-05-14T03:39:22.242Z,6.47
2023-05-14T03:44:23.820Z,6.75
2023-05-14T03:49:25.597Z,6.13
2023-05-14T03:54:27.221Z,6.38
2023-05-14T03:59:29.870Z,6.25
2023-05-14T04:04:31.428Z,5.88
2023-05-14T04:09:33.013Z,6.18
2023-05-14T04:14:34.531Z,6.28
2023-05-14T04:19:36.092Z,6.00
2023-05-14T04:24:37.975Z,6.57
2023-05-14T04:29:39.558Z,5.75
2023-05-14T04:34:41.204Z,6.47
2023-05-14T04:39:43.535Z,6.03
2023-05-14T04:44:45.043Z,6.20
2023-05-14T04:49:46.576Z,6.43
2023-05-14T04:54:48.123Z,6.07
2023-05-14T04:59:49.628Z,5.88
2023-05-14T05:04:51.098Z,6.50
2023-05-14T05:09:52.661Z,6.35
2023-05-14T05:14:54.154Z,5.88
2023-05-14T05:19:55.636Z,6.65
2023-05-14T05:24:58.685Z,6.55
2023-05-14T05:30:04.033Z,5.95
2023-05-14T05:35:06.547Z,6.20
2023-05-14T05:40:09.126Z,6.18
2023-05-14T05:45:10.880Z,6.82
2023-05-14T05:50:12.424Z,6.65
2023-05-14T05:55:13.923Z,6.35
2023-05-14T06:00:16.831Z,6.28
2023-05-14T06:05:19.378Z,6.13
2023-05-14T06:10:21.049Z,8.65
2023-05-14T06:15:23.075Z,6.45
2023-05-14T06:20:24.830Z,6.13
2023-05-14T06:25:26.603Z,5.68
2023-05-14T06:30:28.190Z,6.22
2023-05-14T06:35:29.731Z,6.32
2023-05-14T06:40:31.948Z,6.10
2023-05-14T06:45:33.507Z,6.00
2023-05-14T06:50:35.041Z,6.72
2023-05-14T06:55:36.693Z,7.53
2023-05-14T07:00:38.202Z,5.85
2023-05-14T07:05:41.182Z,6.15
2023-05-14T07:10:42.716Z,5.55
2023-05-14T07:15:44.256Z,5.10
2023-05-14T07:20:45.805Z,5.72
2023-05-14T07:25:47.298Z,5.63
2023-05-14T07:30:48.862Z,5.10
2023-05-14T07:35:51.109Z,5.10
2023-05-14T07:40:52.730Z,5.22
2023-05-14T07:45:54.379Z,4.75
2023-05-14T07:50:55.921Z,4.28
2023-05-14T07:55:57.845Z,4.38
2023-05-14T08:01:01.286Z,3.67
2023-05-14T08:06:03.923Z,3.90
2023-05-14T08:11:05.661Z,4.90
2023-05-14T08:16:07.556Z,3.85
2023-05-14T08:21:09.066Z,3.80
2023-05-14T08:26:10.579Z,4.03
2023-05-14T08:31:14.482Z,4.00
2023-05-14T08:36:16.179Z,4.28
2023-05-14T08:41:17.903Z,3.40
2023-05-14T08:46:23.265Z,3.75
2023-05-14T08:51:26.533Z,3.80
2023-05-14T08:56:29.389Z,3.47
2023-05-14T09:01:31.094Z,3.70
2023-05-14T09:06:33.225Z,4.22
2023-05-14T09:11:34.777Z,3.30
2023-05-14T09:16:37.485Z,3.15
2023-05-14T09:21:40.190Z,2.95
2023-05-14T09:26:42.473Z,3.05
2023-05-14T09:31:44.256Z,3.10
2023-05-14T09:36:45.866Z,2.53
2023-05-14T09:41:47.347Z,2.78
2023-05-14T09:46:49.453Z,2.50
2023-05-14T09:51:51.434Z,2.50
2023-05-14T09:56:54.542Z,2.72
2023-05-14T10:01:58.027Z,2.30
2023-05-14T10:07:00.870Z,2.08
2023-05-14T10:12:02.543Z,3.05
2023-05-14T10:17:06.374Z,2.28
2023-05-14T10:22:11.386Z,2.40
2023-05-14T10:27:13.051Z,2.17
2023-05-14T10:32:14.842Z,2.30
2023-05-14T10:37:25.370Z,2.10
2023-05-14T10:42:36.029Z,3.03
2023-05-14T10:47:46.473Z,2.33
2023-05-14T10:52:49.072Z,2.05
2023-05-14T10:57:52.214Z,2.88
2023-05-14T11:02:57.575Z,2.00
2023-05-14T11:08:01.648Z,2.22
2023-05-14T11:13:03.309Z,1.77
2023-05-14T11:18:05.204Z,2.47
2023-05-14T11:23:06.736Z,2.28
2023-05-14T11:28:08.355Z,2.10
2023-05-14T11:33:10.454Z,2.40
2023-05-14T11:38:21.345Z,2.53
2023-05-14T11:43:29.490Z,1.90
2023-05-14T11:48:31.970Z,1.42
2023-05-14T11:53:33.541Z,1.63
2023-05-14T11:58:35.119Z,2.45
2023-05-14T12:03:36.850Z,2.47
2023-05-14T12:08:38.511Z,1.80
2023-05-14T12:13:40.642Z,2.47
2023-05-14T12:18:42.809Z,2.10
2023-05-14T12:23:44.390Z,2.15
2023-05-14T12:28:47.618Z,2.00
2023-05-14T12:33:49.080Z,1.95
2023-05-14T12:38:51.310Z,1.73
2023-05-14T12:43:52.807Z,1.92
2023-05-14T12:48:54.860Z,1.73
2023-05-14T12:53:56.335Z,1.75
2023-05-14T12:58:57.944Z,1.73
2023-05-14T13:03:59.585Z,1.90
2023-05-14T13:09:02.369Z,2.17
2023-05-14T13:14:04.001Z,2.58
2023-05-14T13:19:05.629Z,2.65
2023-05-14T13:24:07.500Z,2.65
2023-05-14T13:29:09.332Z,2.35
2023-05-14T13:34:10.827Z,2.80
2023-05-14T13:39:14.141Z,2.90
2023-05-14T13:44:15.926Z,2.90
2023-05-14T13:49:17.508Z,2.83
2023-05-14T13:54:19.020Z,3.83
2023-05-14T13:59:20.995Z,2.78
2023-05-14T14:04:22.635Z,3.47
2023-05-14T14:09:24.590Z,3.15
2023-05-14T14:14:26.097Z,3.35
2023-05-14T14:19:27.669Z,3.47
2023-05-14T14:24:29.231Z,3.22
2023-05-14T14:29:31.156Z,3.95
2023-05-14T14:34:32.696Z,3.15
2023-05-14T14:39:34.239Z,3.90
2023-05-14T14:44:35.709Z,1.52
2023-05-14T14:49:37.187Z,1.92
2023-05-14T14:54:38.730Z,1.33
2023-05-14T14:59:40.381Z,2.15
2023-05-14T15:04:41.971Z,1.10
2023-05-14T15:09:43.451Z,1.20
2023-05-14T15:14:45.016Z,0.85
2023-05-14T15:19:46.612Z,0.90
2023-05-14T15:24:48.089Z,0.85
2023-05-14T15:29:49.604Z,10.63
2023-05-14T15:34:51.103Z,0.93
2023-05-14T15:39:52.643Z,2.03
2023-05-14T15:44:55.005Z,1.02
2023-05-14T15:49:56.615Z,1.63
2023-05-14T15:54:59.496Z,1.50
2023-05-14T16:00:01.128Z,1.17
2023-05-14T16:05:02.940Z,1.48
2023-05-14T16:10:05.925Z,2.20
2023-05-14T16:15:08.148Z,3.20
2023-05-14T16:20:10.335Z,1.90
2023-05-14T16:25:12.139Z,2.03
2023-05-14T16:30:13.704Z,1.80
2023-05-14T16:35:16.773Z,2.53
2023-05-14T16:40:19.629Z,2.17
2023-05-14T16:45:21.152Z,1.40
2023-05-14T16:50:22.666Z,1.30
2023-05-14T16:55:24.742Z,1.30
2023-05-14T17:00:26.447Z,1.35
2023-05-14T17:05:28.123Z,3.25
2023-05-14T17:10:30.253Z,1.30
2023-05-14T17:15:31.824Z,1.38
2023-05-14T17:20:33.459Z,1.63
2023-05-14T17:25:34.996Z,1.30
2023-05-14T17:30:36.497Z,1.55
2023-05-14T17:35:38.082Z,1.38
2023-05-14T17:40:40.819Z,1.50
2023-05-14T17:45:53.062Z,1.20
2023-05-14T17:50:55.651Z,1.40
2023-05-14T17:55:57.300Z,1.70
2023-05-14T18:00:58.821Z,1.40
2023-05-14T18:06:00.436Z,2.65
2023-05-14T18:11:01.984Z,1.38
2023-05-14T18:16:03.872Z,1.25
2023-05-14T18:21:05.520Z,1.45
2023-05-14T18:26:07.208Z,1.73
2023-05-14T18:31:08.945Z,1.77
2023-05-14T18:36:10.694Z,1.52
2023-05-14T18:41:12.215Z,1.30
2023-05-14T18:46:14.030Z,1.15
2023-05-14T18:51:15.712Z,1.60
2023-05-14T18:56:17.287Z,2.22
2023-05-14T19:01:18.840Z,1.40
2023-05-14T19:06:20.575Z,1.15
2023-05-14T19:11:22.591Z,1.50
2023-05-14T19:16:24.376Z,1.48
2023-05-14T19:21:25.880Z,1.67
2023-05-14T19:26:28.085Z,1.95
2023-05-14T19:31:29.643Z,1.77
2023-05-14T19:36:32.195Z,2.03
2023-05-14T19:41:33.707Z,2.28
2023-05-14T19:46:35.301Z,2.42
2023-05-14T19:51:36.857Z,4.90
2023-05-14T19:56:38.552Z,4.15
2023-05-14T20:01:40.185Z,4.20
2023-05-14T20:06:45.354Z,33.58
2023-05-14T20:11:46.945Z,17.25
2023-05-14T20:16:49.027Z,4.95
2023-05-14T20:21:50.641Z,4.07
2023-05-14T20:26:52.309Z,2.55
2023-05-14T20:31:53.859Z,3.40
2023-05-14T20:36:56.003Z,4.95
2023-05-14T20:41:57.525Z,2.50
2023-05-14T20:46:59.232Z,2.42
2023-05-14T20:52:00.786Z,2.35
2023-05-14T20:57:02.334Z,2.28
2023-05-14T21:02:04.385Z,2.15
2023-05-14T21:07:06.208Z,2.17
2023-05-14T21:12:08.241Z,2.92
2023-05-14T21:17:09.763Z,1.77
2023-05-14T21:22:12.706Z,1.58
2023-05-14T21:27:14.342Z,3.17
2023-05-14T21:32:16.005Z,1.60
2023-05-14T21:37:17.549Z,1.55
2023-05-14T21:42:20.963Z,1.45
2023-05-14T21:47:22.548Z,1.10
2023-05-14T21:52:24.089Z,1.58
2023-05-14T21:57:28.136Z,1.58
2023-05-14T22:02:30.215Z,1.35
2023-05-14T22:07:32.865Z,1.35
2023-05-14T22:12:34.465Z,1.52
2023-05-14T22:17:36.341Z,1.27
2023-05-14T22:22:38.540Z,1.30
2023-05-14T22:27:40.042Z,1.05
2023-05-14T22:32:41.624Z,1.35
2023-05-14T22:37:43.266Z,1.23
2023-05-14T22:42:45.219Z,1.38
2023-05-14T22:47:46.836Z,1.95
2023-05-14T22:52:48.380Z,1.45
2023-05-14T22:57:50.212Z,1.70
2023-05-14T23:02:51.873Z,1.20
2023-05-14T23:07:53.590Z,1.30
2023-05-14T23:12:55.208Z,1.30
2023-05-14T23:17:57.025Z,1.17
2023-05-14T23:22:58.745Z,1.33
2023-05-14T23:28:00.396Z,1.30
2023-05-14T23:33:01.954Z,1.17
2023-05-14T23:38:07.408Z,1.65
2023-05-14T23:43:08.921Z,1.55
2023-05-14T23:48:10.534Z,1.08
2023-05-14T23:53:12.050Z,1.30
2023-05-14T23:58:13.601Z,1.60
